Time;durP1;ratioP1;P1;durP2;ratioP2;P2;SDS_P1;SDS_P2;PMS_P1;PMS_P2;Temp;Humidity;BMP_temperature;BMP_pressure;BME280_temperature;BME280_humidity;BME280_pressure;Samples;Min_cycle;Max_cycle;Signal;HPM_P1;HPM_P2
2022/10/04 00:00:30;;;;;;;10.23;5.57;;;;;8.10;94684.00;;;;7408122;19;20157;-80
2022/10/04 00:03:10;;;;;;;13.13;7.63;;;;;8.10;94683.00;;;;7407816;19;20185;-80
2022/10/04 00:05:40;;;;;;;12.60;6.53;;;;;8.10;94685.00;;;;7409736;19;20146;-79
2022/10/04 00:08:50;;;;;;;11.93;6.13;;;;;8.20;94674.00;;;;7407679;19;20163;-79
2022/10/04 00:11:28;;;;;;;15.10;6.60;;;;;8.10;94677.00;;;;7409049;19;20152;-79
2022/10/04 00:14:30;;;;;;;11.73;6.67;;;;;8.10;94677.00;;;;7407376;19;20606;-79
2022/10/04 00:17:19;;;;;;;12.23;6.37;;;;;8.00;94678.00;;;;7402377;19;20132;-80
2022/10/04 00:19:54;;;;;;;11.93;6.57;;;;;8.00;94679.00;;;;7407305;19;20156;-79
2022/10/04 00:22:27;;;;;;;15.57;6.67;;;;;8.10;94675.00;;;;7404894;19;20148;-79
2022/10/04 00:25:07;;;;;;;11.63;7.20;;;;;8.10;94677.00;;;;7405964;19;20128;-79
2022/10/04 00:27:59;;;;;;;20.53;6.93;;;;;8.20;94668.00;;;;7399946;19;20145;-79
2022/10/04 00:30:37;;;;;;;12.50;6.50;;;;;8.30;94676.00;;;;7409396;19;20132;-79
2022/10/04 00:33:04;;;;;;;14.17;6.80;;;;;8.20;94673.00;;;;7417518;19;20141;-80
2022/10/04 00:35:32;;;;;;;16.33;7.33;;;;;8.20;94673.00;;;;7409708;19;20157;-77
2022/10/04 00:38:05;;;;;;;12.00;6.47;;;;;8.10;94680.00;;;;7412092;19;20131;-78
2022/10/04 00:40:48;;;;;;;15.33;6.77;;;;;8.00;94665.00;;;;7413158;19;20161;-78
2022/10/04 00:43:30;;;;;;;18.23;7.90;;;;;8.00;94668.00;;;;7412731;19;20197;-77
2022/10/04 00:46:05;;;;;;;18.53;7.23;;;;;8.00;94658.00;;;;7411017;19;20657;-78
2022/10/04 00:49:01;;;;;;;14.07;7.53;;;;;8.00;94657.00;;;;7404707;19;20133;-80
2022/10/04 00:52:04;;;;;;;13.27;6.87;;;;;8.00;94653.00;;;;7404867;19;20582;-80
2022/10/04 00:54:46;;;;;;;11.33;7.10;;;;;7.90;94650.00;;;;7406029;19;20136;-80
2022/10/04 00:57:30;;;;;;;13.93;7.87;;;;;7.90;94645.00;;;;7403613;19;20184;-80
2022/10/04 01:00:12;;;;;;;16.23;7.57;;;;;7.90;94639.00;;;;7403013;19;20143;-80
2022/10/04 01:02:49;;;;;;;13.50;7.70;;;;;7.80;94631.00;;;;7406250;19;20156;-80
2022/10/04 01:05:29;;;;;;;14.83;7.17;;;;;7.80;94631.00;;;;7403384;19;20148;-79
2022/10/04 01:08:13;;;;;;;20.00;7.40;;;;;7.80;94636.00;;;;7400928;19;20592;-80
2022/10/04 01:11:11;;;;;;;9.33;6.50;;;;;7.90;94638.00;;;;7400775;19;20167;-80
2022/10/04 01:13:55;;;;;;;15.10;6.87;;;;;7.90;94640.00;;;;7401147;19;20578;-79
2022/10/04 01:16:41;;;;;;;12.27;6.37;;;;;8.00;94647.00;;;;7397519;19;20656;-80
2022/10/04 01:19:24;;;;;;;15.20;7.63;;;;;8.00;94637.00;;;;7409116;19;20224;-80
2022/10/04 01:22:07;;;;;;;15.47;6.50;;;;;7.90;94639.00;;;;7414585;19;20191;-79
2022/10/04 01:24:39;;;;;;;12.23;6.47;;;;;8.00;94635.00;;;;7404650;19;20164;-80
2022/10/04 01:27:30;;;;;;;10.57;5.67;;;;;7.90;94633.00;;;;7405956;19;20141;-80
2022/10/04 01:29:59;;;;;;;13.27;6.30;;;;;7.80;94630.00;;;;7407943;19;20165;-79
2022/10/04 01:32:40;;;;;;;11.80;5.83;;;;;7.80;94632.00;;;;7404991;19;20785;-80
2022/10/04 01:35:14;;;;;;;9.37;5.87;;;;;7.80;94626.00;;;;7404078;19;20167;-80
2022/10/04 01:37:48;;;;;;;12.37;6.13;;;;;7.80;94624.00;;;;7407211;19;20178;-80
2022/10/04 01:40:16;;;;;;;11.63;5.70;;;;;7.80;94617.00;;;;7402947;19;20140;-79
2022/10/04 01:43:00;;;;;;;10.03;5.17;;;;;7.80;94615.00;;;;7406211;19;20603;-80
2022/10/04 01:45:43;;;;;;;13.73;6.50;;;;;7.80;94604.00;;;;7403369;19;20618;-80
2022/10/04 01:48:19;;;;;;;20.00;6.60;;;;;7.90;94602.00;;;;7397919;19;20139;-79
2022/10/04 01:51:00;;;;;;;14.30;7.37;;;;;7.80;94606.00;;;;7403029;19;20137;-80
2022/10/04 01:53:40;;;;;;;15.93;6.93;;;;;7.90;94594.00;;;;7397539;19;20137;-79
2022/10/04 01:56:22;;;;;;;15.80;7.70;;;;;7.80;94600.00;;;;7402414;19;20125;-80
2022/10/04 01:59:06;;;;;;;13.30;7.53;;;;;7.90;94595.00;;;;7398354;19;20607;-82
2022/10/04 02:01:49;;;;;;;11.10;7.83;;;;;7.90;94602.00;;;;7400190;19;20148;-80
2022/10/04 02:04:23;;;;;;;14.53;6.93;;;;;7.80;94593.00;;;;7405375;19;20172;-79
2022/10/04 02:07:00;;;;;;;11.83;7.67;;;;;7.60;94592.00;;;;7410461;19;20149;-80
2022/10/04 02:09:32;;;;;;;15.77;8.33;;;;;7.60;94591.00;;;;7409934;19;20136;-80
2022/10/04 02:12:06;;;;;;;14.43;7.97;;;;;7.60;94589.00;;;;7409593;19;20556;-78
2022/10/04 02:14:42;;;;;;;15.97;7.90;;;;;7.60;94589.00;;;;7409404;19;20163;-80
2022/10/04 02:17:28;;;;;;;20.40;7.50;;;;;7.50;94581.00;;;;7406600;19;20610;-81
2022/10/04 02:19:58;;;;;;;13.00;6.90;;;;;7.60;94577.00;;;;7405949;19;20158;-80
2022/10/04 02:22:32;;;;;;;17.43;7.90;;;;;7.70;94579.00;;;;7399434;19;20171;-79
2022/10/04 02:25:04;;;;;;;15.30;8.10;;;;;7.50;94570.00;;;;7404228;19;20125;-80
2022/10/04 02:27:32;;;;;;;12.00;7.53;;;;;7.50;94564.00;;;;7403280;19;20160;-80
2022/10/04 02:30:11;;;;;;;15.47;7.10;;;;;7.50;94564.00;;;;7404181;19;20584;-79
2022/10/04 02:32:58;;;;;;;15.00;6.90;;;;;7.50;94566.00;;;;7395864;19;20746;-80
2022/10/04 02:35:45;;;;;;;14.87;7.70;;;;;7.50;94564.00;;;;7398319;19;20132;-79
2022/10/04 02:38:21;;;;;;;12.57;6.50;;;;;7.50;94556.00;;;;7400420;19;20144;-80
2022/10/04 02:41:20;;;;;;;15.23;7.30;;;;;7.60;94562.00;;;;7399401;19;20192;-80
2022/10/04 02:44:10;;;;;;;12.77;7.33;;;;;7.80;94569.00;;;;7398832;19;20148;-79
2022/10/04 02:47:04;;;;;;;13.60;7.77;;;;;7.90;94567.00;;;;7393779;19;20137;-80
2022/10/04 02:49:54;;;;;;;12.83;7.13;;;;;7.80;94564.00;;;;7394696;19;20157;-78
2022/10/04 02:52:31;;;;;;;16.23;7.33;;;;;7.80;94562.00;;;;7393352;19;20117;-80
2022/10/04 02:55:23;;;;;;;12.17;7.60;;;;;7.80;94564.00;;;;7395432;19;20184;-80
2022/10/04 02:57:58;;;;;;;17.37;7.27;;;;;7.90;94555.00;;;;7393391;19;20643;-81
2022/10/04 03:00:30;;;;;;;13.40;6.63;;;;;7.80;94562.00;;;;7396954;19;20156;-80
2022/10/04 03:03:23;;;;;;;13.53;6.67;;;;;7.80;94560.00;;;;7396840;19;20159;-80
2022/10/04 03:06:07;;;;;;;15.43;7.33;;;;;7.80;94562.00;;;;7394881;19;20595;-81
2022/10/04 03:08:58;;;;;;;11.47;6.63;;;;;7.70;94570.00;;;;7394443;19;20197;-80
2022/10/04 03:11:30;;;;;;;15.00;6.27;;;;;7.70;94566.00;;;;7396838;19;20169;-81
2022/10/04 03:14:12;;;;;;;11.33;6.00;;;;;7.80;94558.00;;;;7404627;19;20496;-80
2022/10/04 03:16:49;;;;;;;10.50;6.77;;;;;7.70;94563.00;;;;7404867;19;20224;-79
2022/10/04 03:19:26;;;;;;;11.40;6.57;;;;;7.80;94557.00;;;;7405508;19;20588;-80
2022/10/04 03:21:58;;;;;;;11.07;6.53;;;;;7.80;94551.00;;;;7408670;19;20663;-81
2022/10/04 03:24:45;;;;;;;11.00;6.70;;;;;7.80;94558.00;;;;7410325;19;20156;-80
2022/10/04 03:27:21;;;;;;;14.53;6.77;;;;;7.80;94555.00;;;;7415450;19;20180;-80
2022/10/04 03:29:58;;;;;;;10.77;5.63;;;;;7.80;94556.00;;;;7411818;19;20143;-81
2022/10/04 03:32:29;;;;;;;12.63;5.70;;;;;7.80;94555.00;;;;7411154;19;20216;-81
2022/10/04 03:35:06;;;;;;;13.90;5.53;;;;;7.60;94545.00;;;;7409850;19;20159;-80
2022/10/04 03:37:37;;;;;;;9.23;5.47;;;;;7.70;94544.00;;;;7411882;19;20161;-80
2022/10/04 03:40:13;;;;;;;14.17;5.97;;;;;7.70;94542.00;;;;7407088;19;20132;-79
2022/10/04 03:42:46;;;;;;;11.20;5.60;;;;;7.80;94558.00;;;;7413974;19;20155;-80
2022/10/04 03:45:21;;;;;;;9.60;5.53;;;;;7.80;94545.00;;;;7417029;19;20157;-80
2022/10/04 03:47:53;;;;;;;16.47;5.87;;;;;7.90;94539.00;;;;7415770;19;20172;-82
2022/10/04 03:50:37;;;;;;;13.53;5.60;;;;;7.90;94536.00;;;;7409943;19;20156;-80
2022/10/04 03:53:34;;;;;;;11.87;5.90;;;;;7.90;94538.00;;;;7411960;19;20149;-81
2022/10/04 03:56:38;;;;;;;12.30;5.83;;;;;7.70;94536.00;;;;7412965;19;20151;-81
2022/10/04 03:59:12;;;;;;;9.37;5.20;;;;;7.80;94535.00;;;;7411417;19;20146;-81
2022/10/04 04:02:01;;;;;;;9.90;5.47;;;;;7.70;94537.00;;;;7410800;19;20157;-81
2022/10/04 04:05:12;;;;;;;11.07;4.97;;;;;7.60;94540.00;;;;7408789;19;20156;-82
2022/10/04 04:07:54;;;;;;;9.97;5.00;;;;;7.60;94533.00;;;;7411980;19;20212;-80
2022/10/04 04:10:26;;;;;;;7.13;4.80;;;;;7.60;94536.00;;;;7406447;19;20152;-80
2022/10/04 04:13:38;;;;;;;11.03;5.10;;;;;7.50;94539.00;;;;7409987;19;20179;-82
2022/10/04 04:16:08;;;;;;;10.77;4.90;;;;;7.50;94534.00;;;;7414133;19;20164;-81
2022/10/04 04:18:47;;;;;;;11.90;4.67;;;;;7.40;94535.00;;;;7411747;19;20208;-81
2022/10/04 04:21:18;;;;;;;7.93;4.67;;;;;7.50;94539.00;;;;7411784;19;20208;-82
2022/10/04 04:24:30;;;;;;;13.73;4.57;;;;;7.50;94541.00;;;;7411730;19;20140;-80
2022/10/04 04:27:04;;;;;;;10.73;4.77;;;;;7.50;94542.00;;;;7413720;19;20167;-82
2022/10/04 04:29:52;;;;;;;12.20;4.60;;;;;7.50;94536.00;;;;7411302;19;20535;-82
2022/10/04 04:32:32;;;;;;;9.50;5.00;;;;;7.60;94534.00;;;;7409997;19;20505;-78
2022/10/04 04:35:28;;;;;;;8.00;4.97;;;;;7.60;94535.00;;;;7408076;19;20164;-79
2022/10/04 04:38:23;;;;;;;5.80;4.40;;;;;7.40;94536.00;;;;7407304;19;20125;-80
2022/10/04 04:41:09;;;;;;;6.37;4.70;;;;;7.50;94534.00;;;;7411923;19;20169;-82
2022/10/04 04:43:44;;;;;;;9.00;5.17;;;;;7.40;94539.00;;;;7408464;19;20143;-81
2022/10/04 04:46:18;;;;;;;9.90;4.57;;;;;7.50;94538.00;;;;7412753;19;20149;-79
2022/10/04 04:49:02;;;;;;;9.03;4.57;;;;;7.40;94537.00;;;;7407756;19;20136;-80
2022/10/04 04:51:40;;;;;;;13.33;5.17;;;;;7.40;94542.00;;;;7408414;19;20129;-81
2022/10/04 04:54:09;;;;;;;12.17;5.40;;;;;7.50;94533.00;;;;7406963;19;20140;-80
2022/10/04 04:56:42;;;;;;;9.97;4.93;;;;;7.40;94531.00;;;;7412353;19;20149;-80
2022/10/04 04:59:17;;;;;;;9.67;5.10;;;;;7.50;94532.00;;;;7404379;19;20196;-80
2022/10/04 05:01:47;;;;;;;8.20;4.83;;;;;7.40;94535.00;;;;7409803;19;20173;-80
2022/10/04 05:04:22;;;;;;;11.83;5.27;;;;;7.30;94546.00;;;;7412653;19;20161;-81
2022/10/04 05:07:14;;;;;;;10.53;5.60;;;;;7.30;94540.00;;;;7409751;19;20153;-80
2022/10/04 05:09:42;;;;;;;9.00;4.90;;;;;7.40;94538.00;;;;7403854;19;20150;-80
2022/10/04 05:12:23;;;;;;;11.43;4.87;;;;;7.50;94542.00;;;;7407640;19;20179;-81
2022/10/04 05:15:10;;;;;;;7.37;4.80;;;;;7.50;94544.00;;;;7413367;19;20153;-82
2022/10/04 05:17:52;;;;;;;10.73;5.27;;;;;7.40;94540.00;;;;7415840;19;20155;-82
2022/10/04 05:20:21;;;;;;;9.53;5.43;;;;;7.50;94534.00;;;;7417943;19;20132;-83
2022/10/04 05:22:57;;;;;;;9.70;5.57;;;;;7.40;94541.00;;;;7414293;19;20147;-80
2022/10/04 05:25:34;;;;;;;9.60;5.00;;;;;7.40;94544.00;;;;7414452;19;20144;-82
2022/10/04 05:28:17;;;;;;;7.87;4.67;;;;;7.30;94547.00;;;;7413672;19;20133;-82
2022/10/04 05:31:23;;;;;;;7.10;4.77;;;;;7.40;94542.00;;;;7411432;19;20133;-82
2022/10/04 05:33:58;;;;;;;11.50;5.43;;;;;7.50;94548.00;;;;7406156;19;20136;-80
2022/10/04 05:37:04;;;;;;;10.83;5.17;;;;;7.50;94543.00;;;;7411612;19;20201;-81
2022/10/04 05:39:48;;;;;;;8.07;5.03;;;;;7.70;94547.00;;;;7411600;19;20160;-80
2022/10/04 05:42:45;;;;;;;9.30;5.00;;;;;7.60;94551.00;;;;7417754;19;20177;-81
2022/10/04 05:45:32;;;;;;;5.80;4.43;;;;;7.70;94553.00;;;;7413667;19;20137;-82
2022/10/04 05:48:11;;;;;;;10.33;4.53;;;;;7.80;94550.00;;;;7409484;19;20137;-83
2022/10/04 05:50:49;;;;;;;7.10;4.63;;;;;7.80;94553.00;;;;7407579;19;20141;-82
2022/10/04 05:53:34;;;;;;;11.40;5.23;;;;;8.00;94543.00;;;;7411188;19;20208;-81
2022/10/04 05:56:39;;;;;;;19.13;5.20;;;;;7.90;94546.00;;;;7416751;19;20128;-82
2022/10/04 05:59:42;;;;;;;9.97;4.93;;;;;7.90;94563.00;;;;7419909;19;20241;-82
2022/10/04 06:08:21;;;;;;;11.63;5.43;;;;;8.10;94545.00;;;;7386996;19;20196;-79
2022/10/04 06:11:11;;;;;;;8.97;4.47;;;;;8.20;94546.00;;;;7394722;19;20173;-79
2022/10/04 06:14:02;;;;;;;9.23;4.80;;;;;8.30;94559.00;;;;7400988;19;20244;-79
2022/10/04 06:16:59;;;;;;;9.90;4.10;;;;;8.40;94563.00;;;;7403763;19;20140;-81
2022/10/04 06:20:04;;;;;;;7.53;4.33;;;;;8.50;94560.00;;;;7401187;19;20132;-83
2022/10/04 06:22:32;;;;;;;10.07;4.53;;;;;8.70;94560.00;;;;7397355;19;20141;-80
2022/10/04 06:25:11;;;;;;;6.20;4.20;;;;;8.70;94562.00;;;;7397584;19;20153;-79
2022/10/04 06:27:43;;;;;;;12.47;4.00;;;;;8.90;94567.00;;;;7396451;19;20136;-81
2022/10/04 06:30:19;;;;;;;10.33;4.43;;;;;8.80;94568.00;;;;7393152;19;20132;-80
2022/10/04 06:32:48;;;;;;;10.17;4.80;;;;;9.00;94558.00;;;;7394626;19;20144;-81
2022/10/04 06:35:34;;;;;;;8.53;4.40;;;;;9.00;94561.00;;;;7399824;19;20129;-81
2022/10/04 06:38:36;;;;;;;10.33;4.27;;;;;9.10;94571.00;;;;7394050;19;20153;-80
2022/10/04 06:41:28;;;;;;;8.33;4.00;;;;;9.10;94566.00;;;;7400094;19;20133;-80
2022/10/04 06:44:23;;;;;;;6.10;3.97;;;;;9.10;94569.00;;;;7403510;19;20133;-82
2022/10/04 06:47:08;;;;;;;7.70;4.03;;;;;9.20;94561.00;;;;7400719;19;20129;-79
2022/10/04 06:50:14;;;;;;;7.90;3.60;;;;;9.30;94564.00;;;;7389732;19;20121;-81
2022/10/04 06:53:07;;;;;;;6.30;3.25;;;;;9.30;94563.00;;;;7398004;19;20524;-78
2022/10/04 06:55:54;;;;;;;5.23;3.30;;;;;9.40;94567.00;;;;7401211;19;20161;-78
2022/10/04 06:58:54;;;;;;;7.97;3.70;;;;;9.50;94559.00;;;;7397690;19;20136;-78
2022/10/04 07:01:37;;;;;;;10.32;3.70;;;;;9.60;94560.00;;;;7398701;19;20610;-79
2022/10/04 07:04:36;;;;;;;5.73;3.60;;;;;9.70;94556.00;;;;7401614;19;20478;-78
2022/10/04 07:07:47;;;;;;;5.77;3.80;;;;;9.80;94549.00;;;;7400946;19;20136;-78
2022/10/04 07:10:31;;;;;;;6.00;3.30;;;;;9.90;94556.00;;;;7396587;19;20878;-78
2022/10/04 07:13:27;;;;;;;9.90;3.67;;;;;10.00;94552.00;;;;7398448;19;20146;-79
2022/10/04 07:16:08;;;;;;;8.17;3.27;;;;;10.10;94555.00;;;;7401177;19;20144;-79
2022/10/04 07:19:05;;;;;;;6.00;3.35;;;;;10.10;94549.00;;;;7404463;19;20150;-81
2022/10/04 07:21:48;;;;;;;8.93;3.72;;;;;10.10;94550.00;;;;7403675;19;20519;-80
2022/10/04 07:24:50;;;;;;;6.28;3.50;;;;;10.20;94561.00;;;;7400449;19;20152;-80
2022/10/04 07:27:48;;;;;;;6.20;3.60;;;;;10.20;94562.00;;;;7400929;19;20228;-78
2022/10/04 07:30:22;;;;;;;13.02;3.80;;;;;10.20;94557.00;;;;7392931;19;20144;-80
2022/10/04 07:32:56;;;;;;;8.87;3.63;;;;;10.40;94570.00;;;;7400148;19;20125;-79
2022/10/04 07:35:42;;;;;;;6.80;4.05;;;;;10.40;94577.00;;;;7399326;19;20136;-80
2022/10/04 07:39:03;;;;;;;7.18;3.60;;;;;10.50;94592.00;;;;7403428;19;20499;-78
2022/10/04 07:41:38;;;;;;;5.15;3.15;;;;;10.40;94579.00;;;;7399200;19;20168;-80
2022/10/04 07:44:19;;;;;;;9.10;3.97;;;;;10.60;94589.00;;;;7399550;19;20133;-79
2022/10/04 07:46:54;;;;;;;7.07;3.08;;;;;10.70;94588.00;;;;7401929;19;20167;-80
2022/10/04 07:49:35;;;;;;;6.07;3.08;;;;;10.70;94581.00;;;;7400014;19;20148;-80
2022/10/04 07:52:12;;;;;;;5.53;3.80;;;;;10.80;94592.00;;;;7400053;19;20164;-81
2022/10/04 07:55:12;;;;;;;8.02;3.20;;;;;11.00;94587.00;;;;7400430;19;20132;-80
2022/10/04 07:57:43;;;;;;;8.00;3.67;;;;;11.00;94590.00;;;;7401095;19;20140;-81
2022/10/04 08:00:30;;;;;;;3.92;3.10;;;;;11.00;94582.00;;;;7396430;19;20124;-80
2022/10/04 08:03:34;;;;;;;7.35;3.70;;;;;11.20;94584.00;;;;7393771;19;20632;-80
2022/10/04 08:06:36;;;;;;;6.40;3.20;;;;;11.40;94590.00;;;;7395390;19;20159;-79
2022/10/04 08:09:18;;;;;;;7.13;4.07;;;;;11.40;94581.00;;;;7393308;19;20161;-78
2022/10/04 08:12:04;;;;;;;4.43;3.13;;;;;11.40;94580.00;;;;7396241;19;20611;-77
2022/10/04 08:14:50;;;;;;;8.82;3.15;;;;;11.50;94580.00;;;;7398068;19;20579;-80
2022/10/04 08:18:15;;;;;;;3.88;3.13;;;;;11.80;94577.00;;;;7399678;19;20176;-80
2022/10/04 08:20:59;;;;;;;5.45;3.65;;;;;12.10;94583.00;;;;7395113;19;20128;-78
2022/10/04 08:24:04;;;;;;;7.88;3.47;;;;;12.40;94588.00;;;;7394321;19;20137;-78
2022/10/04 08:27:00;;;;;;;5.45;2.95;;;;;12.60;94581.00;;;;7395510;19;20132;-78
2022/10/04 08:30:03;;;;;;;7.47;3.47;;;;;12.50;94576.00;;;;7396867;19;20192;-78
2022/10/04 08:33:06;;;;;;;5.43;2.92;;;;;12.60;94572.00;;;;7394216;19;20144;-78
2022/10/04 08:36:07;;;;;;;4.82;2.95;;;;;12.90;94564.00;;;;7395995;19;20148;-80
2022/10/04 08:38:43;;;;;;;6.43;2.97;;;;;12.90;94564.00;;;;7395207;19;20137;-80
2022/10/04 08:41:35;;;;;;;6.32;2.97;;;;;13.30;94561.00;;;;7397828;19;20137;-78
2022/10/04 08:44:35;;;;;;;4.63;3.20;;;;;13.30;94579.00;;;;7395276;19;20137;-77
2022/10/04 08:47:32;;;;;;;3.50;2.70;;;;;13.10;94570.00;;;;7392348;19;20141;-78
2022/10/04 08:50:21;;;;;;;6.35;3.15;;;;;13.30;94562.00;;;;7393473;19;20135;-79
2022/10/04 08:53:20;;;;;;;5.50;2.80;;;;;13.70;94569.00;;;;7396452;19;20185;-78
2022/10/04 08:56:05;;;;;;;7.82;3.38;;;;;13.90;94582.00;;;;7398170;19;20125;-80
2022/10/04 08:59:16;;;;;;;8.25;2.85;;;;;14.40;94560.00;;;;7401220;19;20125;-81
2022/10/04 09:01:55;;;;;;;4.80;2.80;;;;;14.70;94570.00;;;;7397834;19;20136;-80
2022/10/04 09:04:57;;;;;;;5.75;2.83;;;;;14.60;94584.00;;;;7409806;19;20145;-79
2022/10/04 09:07:49;;;;;;;5.85;3.13;;;;;14.70;94590.00;;;;7392535;19;20154;-78
2022/10/04 09:11:19;;;;;;;3.17;2.38;;;;;14.70;94587.00;;;;7389509;19;20608;-78
2022/10/04 09:14:03;;;;;;;5.05;2.70;;;;;14.70;94590.00;;;;7389676;19;20171;-77
2022/10/04 09:17:07;;;;;;;3.33;2.55;;;;;14.80;94594.00;;;;7393350;19;20939;-78
2022/10/04 09:19:55;;;;;;;5.40;2.50;;;;;14.90;94601.00;;;;7391927;19;20133;-77
2022/10/04 09:22:56;;;;;;;6.03;2.83;;;;;15.30;94593.00;;;;7395481;19;20185;-78
2022/10/04 09:25:33;;;;;;;3.72;2.88;;;;;15.50;94592.00;;;;7394213;19;20155;-80
2022/10/04 09:28:30;;;;;;;3.05;2.40;;;;;16.10;94580.00;;;;7392630;19;20143;-77
2022/10/04 09:31:07;;;;;;;8.57;2.67;;;;;16.00;94577.00;;;;7392744;19;20125;-77
2022/10/04 09:34:21;;;;;;;7.38;2.88;;;;;15.70;94588.00;;;;7391184;19;20484;-77
2022/10/04 09:37:11;;;;;;;5.43;2.97;;;;;15.70;94585.00;;;;7393712;19;20472;-78
2022/10/04 09:40:14;;;;;;;6.20;3.17;;;;;15.40;94584.00;;;;7392147;19;20197;-76
2022/10/04 09:43:11;;;;;;;4.75;2.80;;;;;15.00;94582.00;;;;7390327;19;20137;-76
2022/10/04 09:46:15;;;;;;;4.72;2.88;;;;;15.50;94580.00;;;;7392480;19;20468;-77
2022/10/04 09:48:55;;;;;;;6.85;2.80;;;;;15.70;94584.00;;;;7392156;19;20141;-78
2022/10/04 09:52:00;;;;;;;6.60;2.88;;;;;16.50;94581.00;;;;7391706;19;20157;-78
2022/10/04 09:55:06;;;;;;;3.28;2.50;;;;;16.40;94583.00;;;;7392142;19;20159;-76
2022/10/04 09:57:44;;;;;;;5.35;2.70;;;;;16.40;94580.00;;;;7392959;19;20497;-78
2022/10/04 10:00:23;;;;;;;4.72;2.78;;;;;16.50;94579.00;;;;7391823;19;20676;-79
2022/10/04 10:03:16;;;;;;;6.82;2.80;;;;;16.70;94583.00;;;;7393067;19;20140;-78
2022/10/04 10:06:18;;;;;;;4.68;2.60;;;;;16.50;94583.00;;;;7390958;19;20169;-76
2022/10/04 10:13:38;;;;;;;4.43;2.25;;;;;16.40;94586.00;;;;7391065;19;20176;-77
2022/10/04 10:16:28;;;;;;;5.05;2.80;;;;;17.40;94596.00;;;;7392013;19;20596;-77
2022/10/04 10:19:27;;;;;;;5.60;2.20;;;;;16.90;94595.00;;;;7391147;19;20614;-76
2022/10/04 10:22:34;;;;;;;3.72;2.22;;;;;17.10;94597.00;;;;7391063;19;20148;-75
2022/10/04 10:25:20;;;;;;;2.75;2.50;;;;;17.00;94593.00;;;;7390585;19;20523;-76
2022/10/04 10:28:14;;;;;;;4.63;2.38;;;;;16.90;94590.00;;;;7393533;19;20611;-76
2022/10/04 10:31:09;;;;;;;4.22;2.30;;;;;17.20;94595.00;;;;7388916;19;20145;-77
2022/10/04 10:34:10;;;;;;;3.30;2.30;;;;;17.60;94586.00;;;;7389976;19;20140;-76
2022/10/04 10:36:47;;;;;;;5.38;2.20;;;;;17.90;94590.00;;;;7391710;19;20129;-79
2022/10/04 10:39:45;;;;;;;6.38;2.63;;;;;18.10;94590.00;;;;7390299;19;20498;-79
2022/10/04 10:42:26;;;;;;;2.65;1.92;;;;;18.00;94592.00;;;;7389048;19;20184;-78
2022/10/04 10:45:09;;;;;;;5.40;2.80;;;;;18.30;94589.00;;;;7391907;19;20129;-78
2022/10/04 10:48:14;;;;;;;5.38;2.53;;;;;18.50;94594.00;;;;7390129;19;20136;-79
2022/10/04 10:51:17;;;;;;;4.15;2.05;;;;;18.50;94590.00;;;;7389681;19;20212;-79
2022/10/04 10:53:50;;;;;;;4.72;2.45;;;;;18.90;94595.00;;;;7393231;19;20161;-78
2022/10/04 10:56:31;;;;;;;9.20;2.38;;;;;18.80;94598.00;;;;7398965;19;20464;-81
2022/10/04 10:59:22;;;;;;;3.05;2.10;;;;;19.30;94600.00;;;;7393168;19;20133;-79
2022/10/04 11:02:24;;;;;;;6.35;2.63;;;;;19.40;94605.00;;;;7394220;19;20207;-78
2022/10/04 11:05:56;;;;;;;5.72;2.47;;;;;19.60;94604.00;;;;7392472;19;20141;-79
2022/10/04 11:09:21;;;;;;;4.38;2.40;;;;;19.90;94593.00;;;;7395195;19;20635;-80
2022/10/04 11:12:26;;;;;;;3.92;2.05;;;;;20.00;94586.00;;;;7390593;19;20536;-78
2022/10/04 11:15:22;;;;;;;3.97;1.88;;;;;19.50;94581.00;;;;7393655;19;20129;-80
2022/10/04 11:18:11;;;;;;;4.18;2.30;;;;;19.70;94586.00;;;;7392588;19;20153;-79
2022/10/04 11:20:51;;;;;;;4.20;2.30;;;;;20.10;94582.00;;;;7393829;19;20197;-78
2022/10/04 11:24:13;;;;;;;6.95;2.20;;;;;19.80;94579.00;;;;7392262;19;20208;-79
2022/10/04 11:27:05;;;;;;;4.30;2.20;;;;;20.30;94575.00;;;;7395051;19;20137;-79
2022/10/04 11:30:09;;;;;;;4.93;2.15;;;;;20.70;94578.00;;;;7395591;19;20174;-79
2022/10/04 11:33:05;;;;;;;7.60;2.75;;;;;20.90;94580.00;;;;7398053;19;20145;-79
2022/10/04 11:36:01;;;;;;;2.90;2.30;;;;;20.50;94584.00;;;;7400247;19;20152;-80
2022/10/04 11:39:15;;;;;;;2.42;2.15;;;;;19.70;94579.00;;;;7400993;19;20592;-79
2022/10/04 11:42:20;;;;;;;2.70;2.03;;;;;19.20;94585.00;;;;7396291;19;20129;-78
2022/10/04 11:45:16;;;;;;;3.55;2.60;;;;;19.40;94587.00;;;;7399076;19;20454;-81
2022/10/04 11:48:02;;;;;;;3.47;1.92;;;;;19.40;94587.00;;;;7395524;19;20128;-81
2022/10/04 11:50:44;;;;;;;2.60;1.92;;;;;19.60;94571.00;;;;7395995;19;20133;-77
2022/10/04 11:57:03;;;;;;;5.63;2.33;;;;;19.60;94572.00;;;;7399868;19;20920;-80
2022/10/04 11:59:48;;;;;;;2.78;2.15;;;;;20.10;94567.00;;;;7397012;19;20146;-81
2022/10/04 12:03:09;;;;;;;2.38;2.03;;;;;19.60;94568.00;;;;7396343;19;20216;-78
2022/10/04 12:06:12;;;;;;;3.40;2.25;;;;;20.60;94560.00;;;;7395944;19;20506;-79
2022/10/04 12:09:11;;;;;;;3.53;2.20;;;;;20.70;94565.00;;;;7392529;19;20175;-78
2022/10/04 12:15:21;;;;;;;4.82;2.28;;;;;21.50;94558.00;;;;7397036;19;20164;-80
2022/10/04 12:18:04;;;;;;;4.88;2.00;;;;;22.00;94565.00;;;;7396171;19;20177;-79
2022/10/04 12:21:08;;;;;;;7.60;2.08;;;;;22.00;94558.00;;;;7396997;19;20136;-79
2022/10/04 12:24:13;;;;;;;3.65;2.38;;;;;22.30;94564.00;;;;7396372;19;20608;-79
2022/10/04 12:27:24;;;;;;;4.50;2.17;;;;;22.10;94565.00;;;;7400128;19;20140;-78
2022/10/04 12:30:02;;;;;;;4.35;1.92;;;;;21.80;94569.00;;;;7397777;19;20673;-79
2022/10/04 12:32:54;;;;;;;3.97;2.20;;;;;21.40;94584.00;;;;7394418;19;20499;-80
2022/10/04 12:35:47;;;;;;;3.95;1.83;;;;;21.50;94565.00;;;;7417213;19;20141;-78
2022/10/04 12:38:43;;;;;;;2.95;1.77;;;;;21.50;94557.00;;;;7401215;19;20500;-78
2022/10/04 12:41:12;;;;;;;4.07;2.05;;;;;22.00;94561.00;;;;7399397;19;20151;-81
2022/10/04 12:44:14;;;;;;;2.40;1.60;;;;;22.40;94552.00;;;;7405574;19;20145;-79
2022/10/04 12:47:34;;;;;;;2.80;1.80;;;;;22.10;94550.00;;;;7394489;19;20146;-80
2022/10/04 12:50:21;;;;;;;1.88;1.42;;;;;22.20;94552.00;;;;7393242;19;20165;-79
2022/10/04 12:53:21;;;;;;;3.15;1.70;;;;;22.30;94554.00;;;;7393052;19;20167;-78
2022/10/04 12:56:05;;;;;;;3.78;1.70;;;;;21.90;94556.00;;;;7394285;19;20135;-79
2022/10/04 12:58:45;;;;;;;5.95;1.70;;;;;21.90;94559.00;;;;7399069;19;20200;-79
2022/10/04 13:01:41;;;;;;;2.75;1.48;;;;;21.70;94552.00;;;;7393271;19;20730;-79
2022/10/04 13:04:46;;;;;;;1.35;1.15;;;;;21.10;94555.00;;;;7397803;19;20604;-79
2022/10/04 13:07:57;;;;;;;2.35;1.67;;;;;20.20;94553.00;;;;7395637;19;20208;-81
2022/10/04 13:10:49;;;;;;;3.50;1.48;;;;;20.30;94559.00;;;;7394057;19;20151;-79
2022/10/04 13:13:48;;;;;;;1.90;1.40;;;;;20.20;94553.00;;;;7393673;19;20172;-78
2022/10/04 13:16:52;;;;;;;1.73;1.40;;;;;20.00;94557.00;;;;7394426;19;20125;-79
2022/10/04 13:20:21;;;;;;;5.22;1.45;;;;;20.70;94562.00;;;;7393493;19;20892;-81
2022/10/04 13:23:10;;;;;;;1.50;1.40;;;;;20.60;94556.00;;;;7391355;19;20261;-80
2022/10/04 13:26:14;;;;;;;2.33;1.40;;;;;20.10;94557.00;;;;7392964;19;20140;-79
2022/10/04 13:29:06;;;;;;;2.08;1.33;;;;;19.90;94563.00;;;;7391938;19;20601;-79
2022/10/04 13:31:54;;;;;;;2.72;1.83;;;;;19.80;94559.00;;;;7391307;19;20133;-81
2022/10/04 13:34:52;;;;;;;2.60;1.42;;;;;19.90;94560.00;;;;7392565;19;20208;-79
2022/10/04 13:37:34;;;;;;;3.60;1.52;;;;;20.10;94554.00;;;;7393284;19;20136;-81
2022/10/04 13:40:23;;;;;;;1.50;1.30;;;;;20.50;94553.00;;;;7391912;19;20200;-80
2022/10/04 13:43:19;;;;;;;3.72;1.40;;;;;20.40;94556.00;;;;7392973;19;20142;-80
2022/10/04 13:46:10;;;;;;;2.83;1.40;;;;;20.30;94551.00;;;;7389822;19;20139;-81
2022/10/04 13:48:56;;;;;;;1.92;1.40;;;;;20.20;94549.00;;;;7393417;19;20201;-80
2022/10/04 13:56:35;;;;;;;1.10;1.10;;;;;20.40;94567.00;;;;7392461;19;20128;-80
2022/10/04 13:57:53;;;;;;;1.30;1.20;;;;;19.80;94563.00;;;;7393023;19;20617;-82
2022/10/04 14:01:08;;;;;;;1.60;1.40;;;;;19.40;94560.00;;;;7390870;19;20136;-84
2022/10/04 14:04:02;;;;;;;2.45;1.00;;;;;19.30;94562.00;;;;7394923;19;20148;-82
2022/10/04 14:06:57;;;;;;;1.70;0.98;;;;;19.20;94563.00;;;;7390867;19;20145;-82
2022/10/04 14:10:07;;;;;;;4.75;1.35;;;;;19.60;94558.00;;;;7391305;19;20794;-80
2022/10/04 14:13:04;;;;;;;1.70;1.17;;;;;19.50;94562.00;;;;7390834;19;20221;-85
2022/10/04 14:15:45;;;;;;;1.20;1.10;;;;;19.20;94570.00;;;;7393828;19;20627;-79
2022/10/04 14:18:36;;;;;;;3.03;1.30;;;;;19.10;94566.00;;;;7389843;19;20596;-80
2022/10/04 14:22:11;;;;;;;4.15;1.30;;;;;19.30;94562.00;;;;7390340;19;20208;-79
2022/10/04 14:24:58;;;;;;;1.52;1.42;;;;;19.00;94553.00;;;;7392015;19;20136;-80